Warning: Javascript must be enabled to use all the features on this page!


Page Loading - Please Wait...

Click to hideNews Bulletins

Peak Streamflow for the Nation

USGS 01451650 Little Lehigh Creek at Tenth St. Br. at Allentown

Lehigh County, Pennsylvania
Hydrologic Unit Code 02040106
Latitude  40°35'47", Longitude  75°28'28" NAD27
Drainage area 98.2  square miles
Gage datum 245.63 feet above NGVD29
Output formats
Table
Graph
Tab-separated file
peakfq (watstore) format
Reselect output format
Water
Year
Date Gage
Height
(feet)
Stream-
flow
(cfs)
1987 1987-09-09 9.47 7,370
1988 1988-07-26 4.17 1,120
1989 1989-05-06 4.29 877
1990 1990-05-30 4.80 1,240
1991 1990-12-04 4.31 890
1992 1992-06-05 3.65 633
1993 1993-08-17 5.81 2,760
1994 1994-07-28 5.79 2,390
1995 1995-03-08 4.90 1,540
1996 1996-01-19 7.205 4,0002
1997 1996-10-19 8.60 6,540
1998 1998-06-13 4.16 951
1999 1999-09-16 8.06 5,170
2000 2000-03-22 4.22 995
2001 2000-12-17 5.45 2,050
2002 2002-05-13 4.50 1,210
2003 2003-06-21 6.66 3,340
2004 2004-09-18 10.65 9,680
2005 2005-04-03 7.32 4,160
2006 2005-10-08 11.05 10,500
2007 2007-03-02 5.95 2,560
2008 2008-02-13 5.27 1,870
2009 2008-12-12 4.81 1,460
2010 2009-12-03 4.48 1,190
2011 2011-08-28 9.88 8,140
2012 2012-06-02   2,300
2013 2013-01-31 4.94 1,580
2014 2014-05-01 5.51 2,110
2015 2015-09-30 3.91 777
2016 2016-02-25 7.04 3,800
2017 2017-07-01 4.60 1,290
2018 2018-08-22 6.53 3,190
2019 2018-11-03 8.00 5,080
2020 2020-08-04 12.69 14,500
2021 2021-09-01 9.60 7,610
?
  Peak Gage-Height Qualification Codes.
?
  Peak Streamflow Qualification Codes.